createdAt,value
2023-01-05T00:02:30.306Z,19.77
2023-01-05T00:05:02.354Z,19.55
2023-01-05T00:07:34.296Z,21.85
2023-01-05T00:10:26.843Z,22.95
2023-01-05T00:13:17.191Z,17.05
2023-01-05T00:16:07.771Z,22.85
2023-01-05T00:18:58.175Z,20.55
2023-01-05T00:21:48.875Z,23.63
2023-01-05T00:24:20.849Z,17.13
2023-01-05T00:26:52.815Z,19.00
2023-01-05T00:29:25.610Z,20.05
2023-01-05T00:31:57.787Z,19.75
2023-01-05T00:34:29.843Z,21.00
2023-01-05T00:37:01.778Z,19.77
2023-01-05T00:39:33.797Z,18.55
2023-01-05T00:42:05.825Z,20.85
2023-01-05T00:44:37.794Z,21.73
2023-01-05T00:47:10.093Z,20.10
2023-01-05T00:49:42.260Z,17.35
2023-01-05T00:52:14.248Z,15.63
2023-01-05T00:54:46.246Z,18.33
2023-01-05T00:57:18.350Z,15.85
2023-01-05T00:59:50.327Z,18.02
2023-01-05T01:02:22.357Z,19.70
2023-01-05T01:04:54.437Z,16.02
2023-01-05T01:07:26.387Z,21.67
2023-01-05T01:09:58.323Z,19.02
2023-01-05T01:12:30.352Z,20.65
2023-01-05T01:15:02.857Z,15.35
2023-01-05T01:17:34.915Z,18.63
2023-01-05T01:20:07.562Z,19.20
2023-01-05T01:22:39.557Z,15.60
2023-01-05T01:25:12.688Z,17.95
2023-01-05T01:27:44.665Z,21.25
2023-01-05T01:30:16.682Z,15.98
2023-01-05T01:32:49.472Z,19.10
2023-01-05T01:35:21.423Z,19.60
2023-01-05T01:37:53.392Z,21.08
2023-01-05T01:40:26.467Z,16.27
2023-01-05T01:42:58.413Z,19.50
2023-01-05T01:45:31.041Z,19.80
2023-01-05T01:48:03.323Z,16.92
2023-01-05T01:50:41.596Z,17.65
2023-01-05T01:53:21.256Z,21.42
2023-01-05T01:55:55.614Z,19.00
2023-01-05T01:58:31.908Z,16.83
2023-01-05T02:01:04.113Z,16.00
2023-01-05T02:03:36.871Z,15.98
2023-01-05T02:06:09.528Z,14.77
2023-01-05T02:08:41.720Z,19.10
2023-01-05T02:11:40.859Z,16.38
2023-01-05T02:14:37.192Z,18.17
2023-01-05T02:17:18.986Z,17.10
2023-01-05T02:20:09.166Z,16.30
2023-01-05T02:23:12.885Z,15.52
2023-01-05T02:26:06.825Z,18.02
2023-01-05T02:29:03.055Z,17.42
2023-01-05T02:31:44.685Z,18.50
2023-01-05T02:34:36.838Z,15.70
2023-01-05T02:37:18.626Z,15.50
2023-01-05T02:39:59.360Z,14.45
2023-01-05T02:42:36.011Z,14.23
2023-01-05T02:45:09.143Z,15.57
2023-01-05T02:47:44.776Z,17.40
2023-01-05T02:50:21.908Z,12.77
2023-01-05T02:53:03.781Z,15.25
2023-01-05T02:56:15.514Z,14.10
2023-01-05T02:58:52.985Z,14.63
2023-01-05T03:01:31.001Z,15.02
2023-01-05T03:04:22.779Z,15.93
2023-01-05T03:06:59.696Z,14.98
2023-01-05T03:09:38.266Z,14.75
2023-01-05T03:12:47.956Z,14.30
2023-01-05T03:15:25.353Z,17.65
2023-01-05T03:18:07.643Z,14.70
2023-01-05T03:20:44.753Z,20.02
2023-01-05T03:23:37.893Z,17.67
2023-01-05T03:26:31.097Z,15.10
2023-01-05T03:29:23.181Z,20.02
2023-01-05T03:32:18.751Z,17.25
2023-01-05T03:35:24.495Z,18.73
2023-01-05T03:37:57.165Z,17.08
2023-01-05T03:40:31.578Z,18.55
2023-01-05T03:43:05.219Z,16.35
2023-01-05T03:45:42.222Z,15.52
2023-01-05T03:48:21.097Z,17.10
2023-01-05T03:50:53.339Z,18.88
2023-01-05T03:53:27.135Z,13.05
2023-01-05T03:55:59.342Z,19.52
2023-01-05T03:58:31.956Z,19.42
2023-01-05T04:01:05.021Z,19.02
2023-01-05T04:03:38.824Z,17.48
2023-01-05T04:06:12.819Z,19.42
2023-01-05T04:08:44.819Z,16.83
2023-01-05T04:11:19.777Z,18.02
2023-01-05T04:13:57.688Z,18.25
2023-01-05T04:16:29.878Z,13.82
2023-01-05T04:19:05.596Z,16.95
2023-01-05T04:21:37.978Z,18.70
2023-01-05T04:24:11.354Z,15.60
2023-01-05T04:26:45.761Z,21.17
2023-01-05T04:29:17.949Z,13.70
2023-01-05T04:31:53.120Z,15.75
2023-01-05T04:34:25.651Z,16.33
2023-01-05T04:37:00.484Z,15.35
2023-01-05T04:39:35.132Z,14.15
2023-01-05T04:42:07.898Z,14.95
2023-01-05T04:44:40.174Z,18.08
2023-01-05T04:47:12.502Z,21.80
2023-01-05T04:49:46.733Z,15.65
2023-01-05T04:52:20.615Z,14.93
2023-01-05T04:54:53.580Z,16.17
2023-01-05T04:57:25.903Z,15.93
2023-01-05T04:59:58.011Z,16.23
2023-01-05T05:02:30.504Z,15.38
2023-01-05T05:05:04.211Z,18.20
2023-01-05T05:07:36.223Z,19.63
2023-01-05T05:10:09.826Z,16.45
2023-01-05T05:12:43.905Z,18.48
2023-01-05T05:15:15.992Z,18.15
2023-01-05T05:17:51.654Z,17.83
2023-01-05T05:20:23.643Z,17.05
2023-01-05T05:22:55.612Z,15.77
2023-01-05T05:25:28.301Z,20.23
2023-01-05T05:28:00.392Z,17.95
2023-01-05T05:30:32.334Z,14.63
2023-01-05T05:33:04.491Z,14.05
2023-01-05T05:35:36.455Z,15.32
2023-01-05T05:38:08.406Z,16.13
2023-01-05T05:40:40.399Z,19.60
2023-01-05T05:43:12.376Z,16.17
2023-01-05T05:45:50.111Z,16.08
2023-01-05T05:48:22.589Z,17.10
2023-01-05T05:50:54.618Z,18.65
2023-01-05T05:53:26.545Z,12.55
2023-01-05T05:55:58.586Z,15.90
2023-01-05T05:58:30.554Z,17.23
2023-01-05T06:01:02.515Z,20.15
2023-01-05T06:03:34.593Z,14.05
2023-01-05T06:06:07.019Z,15.23
2023-01-05T06:08:39.048Z,14.18
2023-01-05T06:11:11.020Z,17.45
2023-01-05T06:13:43.884Z,15.02
2023-01-05T06:16:15.973Z,14.02
2023-01-05T06:18:47.879Z,18.95
2023-01-05T06:21:21.494Z,19.60
2023-01-05T06:23:53.460Z,15.73
2023-01-05T06:26:25.407Z,19.42
2023-01-05T06:28:57.432Z,19.67
2023-01-05T06:31:29.395Z,13.73
2023-01-05T06:34:01.368Z,17.25
2023-01-05T06:36:33.300Z,14.35
2023-01-05T06:39:05.333Z,14.32
2023-01-05T06:41:37.368Z,15.35
2023-01-05T06:44:09.579Z,14.40
2023-01-05T06:46:41.726Z,19.88
2023-01-05T06:49:14.832Z,14.27
2023-01-05T06:51:46.818Z,13.40
2023-01-05T06:54:18.912Z,13.75
2023-01-05T06:56:50.935Z,19.27
2023-01-05T06:59:22.938Z,13.80
2023-01-05T07:01:55.109Z,14.95
2023-01-05T07:04:29.547Z,14.05
2023-01-05T07:07:01.568Z,14.07
2023-01-05T07:09:33.533Z,11.93
2023-01-05T07:12:05.683Z,15.75
2023-01-05T07:14:38.261Z,11.07
2023-01-05T07:17:12.577Z,13.15
2023-01-05T07:19:44.555Z,11.38
2023-01-05T07:22:16.520Z,10.45
2023-01-05T07:24:48.445Z,13.85
2023-01-05T07:27:20.415Z,14.80
2023-01-05T07:29:52.477Z,13.65
2023-01-05T07:32:24.467Z,17.20
2023-01-05T07:34:56.393Z,12.35
2023-01-05T07:37:28.381Z,32.17
2023-01-05T07:40:00.398Z,34.17
2023-01-05T07:42:33.236Z,30.98
2023-01-05T07:45:05.761Z,14.90
2023-01-05T07:47:39.570Z,9.60
2023-01-05T07:50:11.583Z,12.85
2023-01-05T07:52:43.591Z,10.55
2023-01-05T07:55:15.735Z,12.57
2023-01-05T07:57:48.899Z,14.00
2023-01-05T08:00:20.972Z,10.18
2023-01-05T08:02:52.897Z,28.60
2023-01-05T08:05:25.723Z,12.85
2023-01-05T08:07:57.768Z,18.05
2023-01-05T08:10:29.858Z,18.58
2023-01-05T08:13:24.477Z,17.52
2023-01-05T08:16:00.028Z,13.10
2023-01-05T08:18:32.031Z,13.05
2023-01-05T08:21:04.558Z,10.05
2023-01-05T08:23:38.412Z,17.00
2023-01-05T08:26:16.990Z,15.65
2023-01-05T08:28:49.206Z,12.57
2023-01-05T08:31:26.840Z,12.35
2023-01-05T08:34:00.305Z,11.77
2023-01-05T08:36:33.346Z,12.75
2023-01-05T08:39:05.525Z,14.95
2023-01-05T08:41:39.606Z,14.30
2023-01-05T08:44:13.501Z,9.80
2023-01-05T08:46:45.520Z,11.20
2023-01-05T08:49:17.514Z,11.10
2023-01-05T08:51:49.434Z,14.43
2023-01-05T08:54:21.374Z,14.77
2023-01-05T08:56:53.460Z,13.75
2023-01-05T08:59:25.579Z,13.40
2023-01-05T09:01:57.669Z,12.35
2023-01-05T09:04:29.792Z,13.73
2023-01-05T09:07:01.771Z,10.48
2023-01-05T09:09:33.798Z,14.07
2023-01-05T09:12:06.854Z,10.73
2023-01-05T09:14:38.925Z,10.15
2023-01-05T09:17:17.326Z,13.77
2023-01-05T09:19:49.526Z,14.05
2023-01-05T09:22:21.704Z,16.10
2023-01-05T09:24:53.894Z,15.15
2023-01-05T09:27:25.922Z,15.15
2023-01-05T09:29:57.963Z,14.80
2023-01-05T09:32:30.100Z,15.77
2023-01-05T09:35:02.155Z,16.80
2023-01-05T09:37:34.149Z,15.85
2023-01-05T09:40:07.067Z,18.88
2023-01-05T09:42:44.541Z,15.98
2023-01-05T09:45:27.138Z,18.77
2023-01-05T09:48:00.643Z,20.35
2023-01-05T09:50:32.565Z,18.58
2023-01-05T09:53:06.248Z,15.43
2023-01-05T09:55:41.223Z,14.82
2023-01-05T09:58:29.637Z,21.15
2023-01-05T10:01:16.424Z,20.45
2023-01-05T10:04:04.898Z,20.65
2023-01-05T10:06:40.895Z,19.35
2023-01-05T10:09:18.521Z,19.90
2023-01-05T10:12:33.903Z,21.10
2023-01-05T10:15:12.156Z,19.48
2023-01-05T10:17:44.941Z,20.88
2023-01-05T10:20:19.025Z,19.10
2023-01-05T10:22:57.015Z,17.75
2023-01-05T10:25:35.122Z,16.83
2023-01-05T10:28:36.150Z,17.40
2023-01-05T10:31:37.417Z,17.35
2023-01-05T10:34:19.803Z,16.35
2023-01-05T10:37:09.249Z,16.08
2023-01-05T10:40:23.047Z,18.58
2023-01-05T10:43:22.452Z,17.15
2023-01-05T10:46:29.338Z,17.92
2023-01-05T10:48:47.027Z,16.35
2023-01-05T10:51:18.932Z,17.85
2023-01-05T10:53:50.946Z,19.92
2023-01-05T10:56:25.863Z,18.27
2023-01-05T10:59:12.239Z,17.83
2023-01-05T11:01:46.969Z,19.23
2023-01-05T11:04:29.281Z,18.65
2023-01-05T11:07:05.465Z,22.17
2023-01-05T11:09:41.420Z,19.58
2023-01-05T11:12:25.369Z,18.80
2023-01-05T11:15:00.224Z,20.45
2023-01-05T11:17:33.095Z,18.77
2023-01-05T11:20:06.373Z,17.17
2023-01-05T11:22:48.084Z,21.00
2023-01-05T11:25:29.201Z,20.25
2023-01-05T11:28:19.340Z,20.92
2023-01-05T11:31:03.848Z,16.48
2023-01-05T11:33:39.599Z,17.40
2023-01-05T11:36:14.922Z,16.73
2023-01-05T11:38:54.354Z,18.05
2023-01-05T11:41:26.565Z,19.63
2023-01-05T11:44:00.941Z,18.48
2023-01-05T11:46:43.512Z,26.45
2023-01-05T11:49:19.403Z,15.15
2023-01-05T11:51:51.400Z,16.98
2023-01-05T11:54:35.586Z,16.73
2023-01-05T11:57:18.887Z,16.52
2023-01-05T11:59:51.452Z,18.38
2023-01-05T12:02:45.148Z,15.48
2023-01-05T12:05:45.259Z,17.70
2023-01-05T12:08:24.691Z,18.83
2023-01-05T12:11:06.232Z,20.75
2023-01-05T12:14:14.301Z,21.17
2023-01-05T12:16:54.615Z,20.40
2023-01-05T12:19:26.454Z,24.38
2023-01-05T12:22:13.728Z,24.25
2023-01-05T12:25:08.450Z,21.83
2023-01-05T12:28:07.423Z,22.30
2023-01-05T12:34:06.035Z,25.98
2023-01-05T12:37:08.080Z,25.23
2023-01-05T12:39:52.508Z,25.15
2023-01-05T12:42:39.364Z,26.73
2023-01-05T12:45:20.484Z,26.63
2023-01-05T12:48:07.476Z,30.98
2023-01-05T12:50:46.697Z,30.42
2023-01-05T12:53:36.718Z,28.63
2023-01-05T12:56:36.219Z,23.48
2023-01-05T12:59:24.442Z,27.33
2023-01-05T13:02:16.029Z,30.02
2023-01-05T13:04:57.466Z,27.17
2023-01-05T13:07:42.364Z,28.20
2023-01-05T13:10:45.340Z,36.22
2023-01-05T13:13:22.356Z,28.15
2023-01-05T13:16:13.174Z,46.15
2023-01-05T13:18:57.791Z,34.22
2023-01-05T13:21:31.839Z,28.05
2023-01-05T13:24:09.775Z,30.42
2023-01-05T13:26:41.950Z,29.75
2023-01-05T13:29:38.019Z,31.17
2023-01-05T13:35:37.740Z,31.85
2023-01-05T13:38:37.202Z,47.35
2023-01-05T13:41:31.988Z,34.63
2023-01-05T13:44:21.871Z,33.45
2023-01-05T13:47:02.774Z,33.20
2023-01-05T13:49:52.698Z,35.28
2023-01-05T13:52:50.724Z,34.45
2023-01-05T13:55:26.482Z,33.50
2023-01-05T13:57:59.257Z,34.08
2023-01-05T14:00:39.536Z,35.55
2023-01-05T14:03:22.899Z,35.38
2023-01-05T14:05:58.651Z,34.92
2023-01-05T14:08:38.168Z,33.30
2023-01-05T14:11:16.393Z,34.65
2023-01-05T14:13:59.606Z,35.80
2023-01-05T14:16:35.124Z,37.63
2023-01-05T14:19:31.376Z,37.95
2023-01-05T14:22:24.308Z,38.60
2023-01-05T14:24:56.281Z,41.80
2023-01-05T14:27:28.214Z,36.90
2023-01-05T14:30:01.058Z,37.67
2023-01-05T14:32:39.593Z,36.40
2023-01-05T14:35:11.580Z,38.97
2023-01-05T14:37:54.555Z,37.00
2023-01-05T14:40:45.747Z,40.22
2023-01-05T14:43:22.588Z,40.00
2023-01-05T14:46:18.101Z,42.95
2023-01-05T14:49:06.445Z,41.50
2023-01-05T14:51:39.797Z,39.08
2023-01-05T14:54:11.736Z,38.22
2023-01-05T14:57:21.896Z,38.88
2023-01-05T15:00:07.526Z,35.25
2023-01-05T15:03:01.533Z,40.55
2023-01-05T15:05:34.678Z,42.22
2023-01-05T15:08:28.671Z,42.80
2023-01-05T15:11:43.252Z,44.72
2023-01-05T15:14:35.074Z,44.75
2023-01-05T15:17:18.844Z,41.30
2023-01-05T15:20:09.658Z,40.88
2023-01-05T15:23:00.282Z,44.33
2023-01-05T15:25:53.127Z,42.92
2023-01-05T15:28:49.004Z,42.10
2023-01-05T15:31:33.537Z,46.05
2023-01-05T15:34:24.620Z,43.90
2023-01-05T15:37:08.635Z,46.45
2023-01-05T15:39:48.315Z,42.45
2023-01-05T15:42:42.795Z,43.25
2023-01-05T15:45:29.335Z,194.65
2023-01-05T15:48:09.245Z,48.92
2023-01-05T15:50:51.468Z,43.67
2023-01-05T15:53:33.110Z,44.17
2023-01-05T15:56:08.198Z,42.67
2023-01-05T15:58:45.961Z,39.92
2023-01-05T16:01:18.224Z,40.70
2023-01-05T16:03:50.622Z,43.30
2023-01-05T16:06:26.567Z,41.90
2023-01-05T16:09:08.209Z,40.05
2023-01-05T16:11:43.926Z,46.10
2023-01-05T16:14:32.990Z,40.55
2023-01-05T16:17:16.810Z,41.53
2023-01-05T16:19:53.717Z,39.35
2023-01-05T16:22:32.487Z,41.13
2023-01-05T16:25:24.387Z,41.35
2023-01-05T16:28:03.620Z,44.22
2023-01-05T16:30:43.853Z,44.75
2023-01-05T16:33:36.626Z,42.13
2023-01-05T16:36:09.356Z,44.28
2023-01-05T16:38:41.754Z,51.63
2023-01-05T16:41:23.232Z,40.88
2023-01-05T16:46:40.911Z,39.78
2023-01-05T16:49:32.561Z,55.22
2023-01-05T16:52:07.972Z,46.47
2023-01-05T16:54:41.721Z,47.55
2023-01-05T16:57:29.345Z,40.88
2023-01-05T17:00:01.290Z,48.83
2023-01-05T17:02:49.057Z,46.05
2023-01-05T17:05:33.832Z,45.33
2023-01-05T17:08:21.005Z,45.65
2023-01-05T17:10:57.751Z,41.40
2023-01-05T17:13:43.551Z,40.63
2023-01-05T17:16:17.456Z,48.75
2023-01-05T17:18:50.173Z,43.90
2023-01-05T17:21:25.595Z,40.55
2023-01-05T17:24:00.105Z,75.30
2023-01-05T17:26:37.347Z,45.78
2023-01-05T17:29:21.752Z,47.45
2023-01-05T17:31:54.557Z,41.75
2023-01-05T17:34:26.780Z,40.22
2023-01-05T17:37:00.793Z,43.20
2023-01-05T17:42:28.025Z,46.63
2023-01-05T17:44:59.945Z,48.15
2023-01-05T17:47:32.007Z,46.38
2023-01-05T17:50:05.233Z,45.55
2023-01-05T17:52:37.256Z,44.95
2023-01-05T17:55:10.371Z,49.55
2023-01-05T17:57:42.468Z,47.13
2023-01-05T18:00:19.488Z,44.35
2023-01-05T18:02:54.875Z,49.05
2023-01-05T18:05:27.063Z,47.65
2023-01-05T18:07:59.071Z,48.92
2023-01-05T18:10:31.073Z,47.80
2023-01-05T18:13:03.107Z,49.38
2023-01-05T18:15:35.829Z,47.47
2023-01-05T18:18:07.755Z,49.15
2023-01-05T18:20:41.470Z,51.45
2023-01-05T18:23:13.557Z,50.15
2023-01-05T18:25:46.008Z,50.45
2023-01-05T18:28:18.208Z,54.50
2023-01-05T18:30:50.280Z,53.15
2023-01-05T18:33:22.479Z,87.82
2023-01-05T18:38:27.303Z,51.25
2023-01-05T18:40:59.285Z,56.08
2023-01-05T18:43:33.064Z,54.38
2023-01-05T18:46:05.791Z,48.50
2023-01-05T18:48:37.714Z,50.80
2023-01-05T18:51:10.369Z,53.78
2023-01-05T18:53:42.629Z,53.35
2023-01-05T18:56:15.329Z,51.70
2023-01-05T18:58:47.296Z,51.13
2023-01-05T19:01:20.650Z,57.90
2023-01-05T19:03:53.980Z,51.88
2023-01-05T19:06:26.551Z,56.58
2023-01-05T19:09:03.282Z,54.80
2023-01-05T19:11:36.784Z,52.83
2023-01-05T19:14:10.088Z,50.97
2023-01-05T19:16:42.410Z,51.10
2023-01-05T19:19:19.314Z,49.60
2023-01-05T19:21:52.347Z,57.13
2023-01-05T19:24:26.804Z,55.60
2023-01-05T19:26:59.083Z,53.85
2023-01-05T19:29:31.087Z,53.55
2023-01-05T19:32:03.086Z,51.78
2023-01-05T19:34:35.043Z,53.28
2023-01-05T19:37:07.076Z,67.88
2023-01-05T19:39:39.012Z,55.15
2023-01-05T19:42:11.054Z,54.35
2023-01-05T19:44:44.799Z,56.08
2023-01-05T19:47:17.021Z,62.97
2023-01-05T19:49:49.017Z,52.10
2023-01-05T19:52:29.507Z,57.17
2023-01-05T19:55:01.709Z,52.88
2023-01-05T19:57:33.821Z,52.60
2023-01-05T20:00:07.501Z,55.47
2023-01-05T20:02:43.604Z,55.42
2023-01-05T20:05:17.450Z,57.95
2023-01-05T20:07:49.439Z,54.55
2023-01-05T20:10:21.898Z,58.97
2023-01-05T20:12:56.348Z,58.40
2023-01-05T20:15:28.313Z,62.53
2023-01-05T20:18:00.309Z,55.35
2023-01-05T20:20:32.548Z,60.17
2023-01-05T20:23:04.490Z,87.10
2023-01-05T20:25:37.795Z,64.07
2023-01-05T20:28:09.676Z,54.50
2023-01-05T20:30:41.675Z,55.72
2023-01-05T20:33:13.759Z,59.83
2023-01-05T20:35:45.693Z,54.78
2023-01-05T20:38:17.770Z,58.22
2023-01-05T20:40:49.707Z,55.85
2023-01-05T20:43:21.624Z,64.00
2023-01-05T20:45:53.551Z,57.65
2023-01-05T20:48:25.471Z,61.33
2023-01-05T20:51:05.464Z,59.08
2023-01-05T20:53:38.418Z,56.30
2023-01-05T20:56:16.919Z,59.10
2023-01-05T20:58:50.907Z,52.28
2023-01-05T21:01:23.025Z,55.33
2023-01-05T21:03:55.027Z,137.70
2023-01-05T21:06:28.364Z,67.15
2023-01-05T21:09:00.527Z,55.63
2023-01-05T21:11:32.969Z,50.38
2023-01-05T21:14:06.814Z,53.15
2023-01-05T21:16:45.158Z,55.78
2023-01-05T21:19:21.017Z,51.85
2023-01-05T21:21:55.597Z,48.30
2023-01-05T21:24:28.069Z,52.97
2023-01-05T21:27:00.057Z,44.85
2023-01-05T21:29:33.111Z,48.42
2023-01-05T21:32:05.300Z,44.25
2023-01-05T21:34:37.354Z,42.70
2023-01-05T21:37:10.023Z,41.45
2023-01-05T21:39:44.530Z,42.70
2023-01-05T21:42:34.909Z,43.22
2023-01-05T21:45:08.742Z,40.85
2023-01-05T21:47:40.904Z,37.83
2023-01-05T21:50:35.838Z,33.10
2023-01-05T21:53:31.238Z,34.08
2023-01-05T21:56:27.399Z,31.58
2023-01-05T21:59:00.340Z,33.95
2023-01-05T22:01:33.041Z,34.13
2023-01-05T22:04:06.271Z,31.92
2023-01-05T22:06:38.236Z,31.67
2023-01-05T22:09:10.224Z,33.97
2023-01-05T22:11:42.252Z,29.13
2023-01-05T22:14:14.453Z,32.33
2023-01-05T22:16:49.315Z,30.33
2023-01-05T22:19:21.495Z,30.42
2023-01-05T22:21:53.415Z,33.88
2023-01-05T22:24:25.404Z,30.63
2023-01-05T22:26:57.628Z,28.08
2023-01-05T22:29:29.651Z,30.00
2023-01-05T22:32:02.978Z,30.85
2023-01-05T22:34:35.201Z,31.40
2023-01-05T22:37:07.102Z,30.10
2023-01-05T22:39:39.166Z,31.52
2023-01-05T22:42:11.549Z,32.50
2023-01-05T22:44:43.719Z,32.35
2023-01-05T22:47:15.781Z,31.48
2023-01-05T22:49:50.103Z,33.58
2023-01-05T22:52:22.237Z,32.42
2023-01-05T22:54:54.623Z,30.80
2023-01-05T22:57:26.689Z,33.50
2023-01-05T22:59:59.165Z,31.05
2023-01-05T23:02:31.544Z,29.65
2023-01-05T23:05:09.307Z,31.67
2023-01-05T23:07:42.105Z,30.23
2023-01-05T23:10:14.059Z,31.23
2023-01-05T23:12:46.050Z,30.17
2023-01-05T23:15:17.982Z,29.38
2023-01-05T23:17:51.051Z,32.95
2023-01-05T23:20:25.402Z,29.05
2023-01-05T23:23:13.913Z,31.58
2023-01-05T23:25:46.750Z,32.38
2023-01-05T23:28:20.422Z,30.17
2023-01-05T23:30:54.105Z,30.33
2023-01-05T23:33:29.981Z,28.05
2023-01-05T23:36:02.720Z,27.35
2023-01-05T23:38:34.643Z,30.95
2023-01-05T23:41:08.497Z,29.55
2023-01-05T23:43:42.346Z,29.83
2023-01-05T23:46:20.104Z,31.20
2023-01-05T23:48:52.684Z,30.27
2023-01-05T23:51:24.870Z,28.95
2023-01-05T23:53:57.838Z,29.35
2023-01-05T23:56:31.094Z,28.88
2023-01-05T23:59:09.341Z,28.17
